Time;durP1;ratioP1;P1;durP2;ratioP2;P2;SDS_P1;SDS_P2;PMS_P1;PMS_P2;Temp;Humidity;BMP_temperature;BMP_pressure;BME280_temperature;BME280_humidity;BME280_pressure;Samples;Min_cycle;Max_cycle;Signal;HPM_P1;HPM_P2
2022/03/14 00:02:04;;;;;;;1.05;0.40;;;11.80;87.30;;;;;;5009344;28;20018;-81
2022/03/14 00:04:30;;;;;;;1.10;0.40;;;11.80;87.30;;;;;;5008929;28;20033;-81
2022/03/14 00:06:56;;;;;;;1.15;0.40;;;11.80;87.40;;;;;;5012281;28;20040;-81
2022/03/14 00:09:21;;;;;;;1.20;0.43;;;11.80;87.50;;;;;;5008533;28;20034;-81
2022/03/14 00:11:47;;;;;;;1.48;0.40;;;11.70;87.60;;;;;;5012812;28;20613;-81
2022/03/14 00:14:13;;;;;;;1.42;0.50;;;11.80;87.90;;;;;;4999361;28;20031;-81
2022/03/14 00:16:41;;;;;;;1.45;0.45;;;11.70;88.40;;;;;;5001484;28;20034;-81
2022/03/14 00:19:07;;;;;;;1.00;0.40;;;11.70;88.90;;;;;;5003493;28;20014;-82
2022/03/14 00:21:38;;;;;;;1.25;0.40;;;11.60;89.40;;;;;;5000696;28;20057;-82
2022/03/14 00:24:04;;;;;;;1.63;0.52;;;11.60;90.00;;;;;;5010823;28;20033;-82
2022/03/14 00:26:30;;;;;;;1.20;0.50;;;11.50;90.20;;;;;;5004829;28;20057;-81
2022/03/14 00:28:55;;;;;;;1.40;0.60;;;11.40;90.60;;;;;;5011849;28;20060;-82
2022/03/14 00:31:22;;;;;;;1.17;0.50;;;11.30;90.90;;;;;;5012431;28;20072;-81
2022/03/14 00:33:47;;;;;;;1.42;0.60;;;11.20;91.10;;;;;;5012274;28;20053;-82
2022/03/14 00:36:13;;;;;;;0.85;0.40;;;11.20;91.50;;;;;;5012354;28;20034;-82
2022/03/14 00:38:39;;;;;;;1.27;0.45;;;11.10;91.70;;;;;;5012283;28;20559;-82
2022/03/14 00:41:06;;;;;;;1.00;0.50;;;11.10;92.00;;;;;;5008445;28;20033;-83
2022/03/14 00:43:33;;;;;;;1.88;0.60;;;11.00;92.20;;;;;;5011490;28;20097;-82
2022/03/14 00:45:58;;;;;;;0.85;0.40;;;11.00;92.50;;;;;;5005574;28;20032;-82
2022/03/14 00:48:24;;;;;;;1.08;0.50;;;10.90;92.70;;;;;;5008317;28;20042;-82
2022/03/14 00:50:50;;;;;;;2.65;0.60;;;10.90;93.00;;;;;;5011988;28;20112;-82
2022/03/14 00:53:16;;;;;;;1.95;0.60;;;10.80;93.30;;;;;;5004031;28;20050;-82
2022/03/14 00:55:42;;;;;;;1.80;0.70;;;10.80;93.40;;;;;;5009640;28;20033;-83
2022/03/14 00:58:07;;;;;;;1.60;0.50;;;10.80;93.70;;;;;;5009804;28;20121;-82
2022/03/14 01:00:33;;;;;;;1.40;0.60;;;10.70;93.90;;;;;;5011401;28;20076;-82
2022/03/14 01:02:59;;;;;;;1.48;0.50;;;10.70;94.10;;;;;;5011711;28;20465;-82
2022/03/14 01:05:28;;;;;;;1.40;0.50;;;10.80;94.40;;;;;;5008181;28;20096;-82
2022/03/14 01:07:54;;;;;;;1.50;0.60;;;10.80;94.50;;;;;;5008665;28;20030;-82
2022/03/14 01:10:20;;;;;;;1.58;0.50;;;10.70;94.70;;;;;;4999631;28;20363;-82
2022/03/14 01:12:46;;;;;;;1.65;0.70;;;10.70;95.00;;;;;;5007265;28;20038;-82
2022/03/14 01:15:11;;;;;;;5.93;0.80;;;10.70;95.20;;;;;;5018180;28;20561;-82
2022/03/14 01:17:38;;;;;;;1.90;0.60;;;10.70;95.30;;;;;;5008995;28;20026;-82
2022/03/14 01:20:05;;;;;;;1.48;0.98;;;10.60;95.50;;;;;;5002737;28;20072;-82
2022/03/14 01:22:31;;;;;;;2.65;1.20;;;10.60;95.70;;;;;;5003672;28;20026;-82
2022/03/14 01:24:57;;;;;;;2.03;0.70;;;10.60;95.80;;;;;;5004873;28;20505;-82
2022/03/14 01:27:22;;;;;;;1.40;0.60;;;10.60;96.00;;;;;;4997419;28;20059;-81
2022/03/14 01:29:48;;;;;;;1.58;0.60;;;10.60;96.10;;;;;;5005322;28;20434;-81
2022/03/14 01:32:14;;;;;;;3.03;0.85;;;10.60;96.20;;;;;;5010261;28;20038;-81
2022/03/14 01:34:40;;;;;;;1.75;0.68;;;10.60;96.20;;;;;;5008051;28;20478;-81
2022/03/14 01:37:06;;;;;;;3.33;0.90;;;10.60;96.40;;;;;;5010718;28;20037;-81
2022/03/14 01:39:31;;;;;;;1.60;0.70;;;10.60;96.50;;;;;;5003025;28;20488;-81
2022/03/14 01:41:58;;;;;;;1.95;0.90;;;10.60;96.60;;;;;;5006073;28;20489;-82
2022/03/14 01:44:25;;;;;;;2.47;0.90;;;10.60;96.80;;;;;;5011040;28;20014;-81
2022/03/14 01:46:50;;;;;;;2.03;0.90;;;10.60;96.90;;;;;;5002153;28;20205;-81
2022/03/14 01:49:18;;;;;;;1.80;0.70;;;10.50;97.00;;;;;;5003029;28;20608;-82
2022/03/14 01:51:44;;;;;;;1.52;0.82;;;10.50;97.20;;;;;;5008552;28;20057;-81
2022/03/14 01:54:10;;;;;;;2.45;0.90;;;10.50;97.30;;;;;;5008742;28;20389;-82
2022/03/14 01:56:38;;;;;;;2.70;0.80;;;10.50;97.40;;;;;;5001658;28;20056;-81
2022/03/14 01:59:04;;;;;;;2.08;0.77;;;10.60;97.60;;;;;;5007479;28;20121;-81
2022/03/14 02:01:29;;;;;;;1.95;0.90;;;10.50;97.80;;;;;;5011183;28;20084;-80
2022/03/14 02:03:55;;;;;;;1.70;0.73;;;10.50;97.80;;;;;;4999001;28;20065;-81
2022/03/14 02:06:20;;;;;;;2.15;1.00;;;10.50;97.80;;;;;;5013874;28;20025;-81
2022/03/14 02:08:46;;;;;;;2.15;1.10;;;10.60;97.90;;;;;;5011403;28;20037;-81
2022/03/14 02:11:12;;;;;;;1.90;0.95;;;10.60;97.90;;;;;;5025223;28;20019;-81
2022/03/14 02:13:38;;;;;;;3.05;1.40;;;10.50;97.90;;;;;;5010627;28;20489;-82
2022/03/14 02:16:03;;;;;;;1.83;0.90;;;10.50;98.00;;;;;;5010871;28;20032;-81
2022/03/14 02:18:29;;;;;;;2.20;0.80;;;10.60;98.20;;;;;;5012111;28;20026;-81
2022/03/14 02:20:56;;;;;;;4.07;0.93;;;10.50;98.20;;;;;;5012795;28;20504;-81
2022/03/14 02:23:21;;;;;;;3.22;0.98;;;10.50;98.30;;;;;;5014667;28;20034;-82
2022/03/14 02:25:49;;;;;;;1.85;0.98;;;10.50;98.80;;;;;;5007192;28;20037;-82
2022/03/14 02:28:15;;;;;;;3.58;1.42;;;10.40;98.60;;;;;;5006532;28;20512;-81
2022/03/14 02:30:42;;;;;;;2.30;1.20;;;10.40;98.80;;;;;;5008419;28;20374;-82
2022/03/14 02:33:08;;;;;;;1.95;0.90;;;10.40;99.00;;;;;;5013984;28;20041;-82
2022/03/14 02:35:37;;;;;;;3.20;1.25;;;10.40;99.10;;;;;;5007379;28;20076;-81
2022/03/14 02:38:02;;;;;;;3.00;1.08;;;10.40;99.30;;;;;;5010704;28;20052;-81
2022/03/14 02:40:28;;;;;;;1.95;1.15;;;10.40;99.50;;;;;;5007378;28;20474;-81
2022/03/14 02:42:54;;;;;;;2.33;1.00;;;10.40;99.50;;;;;;5011006;28;20033;-81
2022/03/14 02:45:19;;;;;;;3.03;1.05;;;10.40;99.60;;;;;;5005917;28;20541;-81
2022/03/14 02:47:45;;;;;;;1.98;1.00;;;10.40;99.60;;;;;;5012533;28;20034;-81
2022/03/14 02:50:10;;;;;;;2.92;1.17;;;10.40;99.60;;;;;;5021376;28;20049;-81
2022/03/14 02:52:36;;;;;;;2.60;1.45;;;10.40;99.80;;;;;;5026246;28;20049;-81
2022/03/14 02:55:02;;;;;;;2.58;1.50;;;10.40;99.80;;;;;;5028035;28;20022;-81
2022/03/14 02:57:28;;;;;;;2.35;1.10;;;10.40;99.90;;;;;;5022388;28;20478;-81
2022/03/14 02:59:56;;;;;;;3.08;1.23;;;10.40;99.90;;;;;;5009007;28;20026;-82
2022/03/14 03:02:23;;;;;;;2.75;1.02;;;10.40;99.90;;;;;;5013079;28;20555;-81
2022/03/14 03:04:50;;;;;;;2.28;1.05;;;10.40;99.90;;;;;;5007263;28;20076;-82
2022/03/14 03:07:18;;;;;;;4.43;1.45;;;10.30;99.90;;;;;;5012581;28;20029;-82
2022/03/14 03:09:44;;;;;;;2.33;1.00;;;10.40;99.90;;;;;;5012580;28;20080;-81
2022/03/14 03:12:13;;;;;;;3.08;1.23;;;10.40;99.90;;;;;;5008015;28;20421;-82
2022/03/14 03:14:38;;;;;;;1.98;1.10;;;10.40;99.90;;;;;;5001313;28;20136;-81
2022/03/14 03:17:04;;;;;;;2.42;1.23;;;10.40;99.90;;;;;;5012348;28;20093;-82
2022/03/14 03:19:30;;;;;;;2.10;1.02;;;10.50;99.90;;;;;;5011346;28;20087;-82
2022/03/14 03:21:55;;;;;;;2.17;1.00;;;10.50;99.90;;;;;;5010679;28;20025;-82
2022/03/14 03:24:21;;;;;;;2.70;1.20;;;10.50;99.90;;;;;;5008229;28;20362;-81
2022/03/14 03:26:46;;;;;;;2.30;1.20;;;10.50;99.90;;;;;;5012573;28;20045;-82
2022/03/14 03:29:12;;;;;;;3.20;1.05;;;10.50;99.90;;;;;;5012373;28;20046;-82
2022/03/14 03:31:37;;;;;;;3.78;1.80;;;10.60;99.90;;;;;;5008211;28;20034;-81
2022/03/14 03:34:03;;;;;;;2.70;1.30;;;10.50;99.90;;;;;;5015856;28;20029;-81
2022/03/14 03:36:29;;;;;;;2.97;1.40;;;10.50;99.90;;;;;;5007544;28;20745;-82
2022/03/14 03:38:55;;;;;;;3.53;1.75;;;10.50;99.90;;;;;;5011204;28;20405;-82
2022/03/14 03:41:20;;;;;;;5.18;1.65;;;10.50;99.90;;;;;;5012152;28;20034;-81
2022/03/14 03:43:46;;;;;;;2.50;1.40;;;10.50;99.90;;;;;;5007604;28;20037;-81
2022/03/14 03:46:11;;;;;;;2.80;1.50;;;10.50;99.90;;;;;;5005306;28;20041;-81
2022/03/14 03:48:37;;;;;;;2.92;1.38;;;10.50;99.90;;;;;;5007740;28;20445;-82
2022/03/14 03:51:03;;;;;;;3.13;1.50;;;10.50;99.90;;;;;;5012428;28;20069;-81
2022/03/14 03:53:29;;;;;;;2.42;1.42;;;10.50;99.90;;;;;;5011963;28;20037;-82
2022/03/14 03:55:54;;;;;;;3.55;1.40;;;10.50;99.90;;;;;;5010148;28;20371;-81
2022/03/14 03:58:20;;;;;;;3.13;1.73;;;10.50;99.90;;;;;;5012472;28;20069;-82
2022/03/14 04:00:45;;;;;;;2.67;1.63;;;10.50;99.90;;;;;;5012442;28;20026;-82
2022/03/14 04:03:11;;;;;;;4.30;1.40;;;10.50;99.90;;;;;;5009883;28;20037;-80
2022/03/14 04:05:39;;;;;;;2.63;1.77;;;10.50;99.90;;;;;;5004781;28;20030;-82
2022/03/14 04:08:08;;;;;;;2.08;1.38;;;10.50;99.90;;;;;;5009123;28;20219;-81
2022/03/14 04:10:33;;;;;;;2.50;1.33;;;10.50;99.90;;;;;;5021738;28;20022;-82
2022/03/14 04:13:03;;;;;;;3.33;1.70;;;10.40;99.90;;;;;;5012871;28;20042;-82
2022/03/14 04:15:30;;;;;;;2.50;1.55;;;10.40;99.90;;;;;;5001873;28;20101;-82
2022/03/14 04:17:58;;;;;;;2.92;1.48;;;10.40;99.90;;;;;;5011920;28;20496;-81
2022/03/14 04:20:24;;;;;;;2.20;1.40;;;10.40;99.90;;;;;;5011664;28;20028;-82
2022/03/14 04:22:51;;;;;;;3.67;1.90;;;10.40;99.90;;;;;;5008222;28;20116;-81
2022/03/14 04:25:16;;;;;;;3.92;1.63;;;10.40;99.90;;;;;;5007028;28;20026;-82
2022/03/14 04:27:42;;;;;;;3.60;1.90;;;10.40;99.90;;;;;;5009941;28;20378;-81
2022/03/14 04:30:09;;;;;;;3.08;1.70;;;10.30;99.90;;;;;;5021471;28;20105;-81
2022/03/14 04:32:35;;;;;;;2.63;1.90;;;10.30;99.90;;;;;;5011471;28;20029;-82
2022/03/14 04:35:01;;;;;;;3.92;2.17;;;10.30;99.90;;;;;;5011521;28;20024;-81
2022/03/14 04:37:27;;;;;;;3.15;2.50;;;10.20;99.90;;;;;;5008785;28;20030;-81
2022/03/14 04:39:54;;;;;;;3.25;2.22;;;10.20;99.90;;;;;;5011050;28;20034;-81
2022/03/14 04:42:21;;;;;;;3.72;2.50;;;10.20;99.90;;;;;;5005254;28;20105;-81
2022/03/14 04:44:49;;;;;;;3.45;3.05;;;10.20;99.90;;;;;;5010278;28;20034;-81
2022/03/14 04:47:16;;;;;;;5.43;3.88;;;10.10;99.90;;;;;;5010144;28;20034;-82
2022/03/14 04:49:42;;;;;;;4.93;3.75;;;10.10;99.90;;;;;;5009836;28;20498;-81
2022/03/14 04:52:08;;;;;;;5.85;3.67;;;10.10;99.90;;;;;;5009588;28;20449;-81
2022/03/14 04:54:33;;;;;;;7.32;5.57;;;10.00;99.90;;;;;;5009334;28;20022;-81
2022/03/14 04:56:59;;;;;;;7.18;5.55;;;10.00;99.90;;;;;;5010218;28;20038;-81
2022/03/14 04:59:25;;;;;;;8.30;6.78;;;9.90;99.90;;;;;;5009623;28;20113;-81
2022/03/14 05:01:50;;;;;;;7.53;6.35;;;9.90;99.90;;;;;;5007696;28;20064;-81
2022/03/14 05:04:16;;;;;;;7.90;6.25;;;9.90;99.90;;;;;;5006671;28;20030;-82
2022/03/14 05:06:42;;;;;;;8.70;6.75;;;9.90;99.90;;;;;;5010710;28;20073;-81
2022/03/14 05:09:07;;;;;;;7.40;5.78;;;9.80;99.90;;;;;;5009529;28;20025;-81
2022/03/14 05:11:33;;;;;;;8.48;6.57;;;9.80;99.90;;;;;;5011277;28;20384;-81
2022/03/14 05:13:59;;;;;;;7.38;5.90;;;9.80;99.90;;;;;;5010080;28;20086;-81
2022/03/14 05:16:25;;;;;;;8.13;6.47;;;9.70;99.90;;;;;;5023899;28;20022;-81
2022/03/14 05:18:51;;;;;;;8.00;5.88;;;9.80;99.90;;;;;;5009086;28;20108;-82
2022/03/14 05:21:16;;;;;;;9.57;6.28;;;9.80;99.90;;;;;;5010109;28;20046;-81
2022/03/14 05:23:42;;;;;;;7.60;5.97;;;9.80;99.90;;;;;;5010931;28;20113;-81
2022/03/14 05:26:07;;;;;;;6.88;5.57;;;9.80;99.90;;;;;;5010025;28;20026;-81
2022/03/14 05:28:33;;;;;;;7.68;5.97;;;9.80;99.90;;;;;;5005562;28;20034;-81
2022/03/14 05:30:59;;;;;;;7.43;6.38;;;9.80;99.90;;;;;;5010114;28;20117;-81
2022/03/14 05:33:24;;;;;;;7.32;5.78;;;9.80;99.90;;;;;;5001211;28;20057;-80
2022/03/14 05:35:54;;;;;;;7.50;6.00;;;9.80;99.90;;;;;;5012153;28;20366;-81
2022/03/14 05:38:20;;;;;;;7.85;5.47;;;9.80;99.90;;;;;;5013874;28;20084;-81
2022/03/14 05:40:46;;;;;;;8.88;6.57;;;9.80;99.90;;;;;;5013101;28;20085;-81
2022/03/14 05:43:11;;;;;;;7.50;6.18;;;9.80;99.90;;;;;;5011850;28;20022;-81
2022/03/14 05:45:37;;;;;;;7.25;5.70;;;9.70;99.90;;;;;;5003428;28;20105;-82
2022/03/14 05:48:03;;;;;;;9.52;6.63;;;9.70;99.90;;;;;;5004537;28;20054;-81
2022/03/14 05:50:29;;;;;;;9.82;6.18;;;9.70;99.90;;;;;;5011133;28;20042;-81
2022/03/14 05:52:55;;;;;;;8.05;6.22;;;9.70;99.90;;;;;;5010423;28;20044;-81
2022/03/14 05:55:21;;;;;;;10.20;6.10;;;9.60;99.90;;;;;;5014882;28;20037;-82
2022/03/14 05:57:46;;;;;;;8.02;6.63;;;9.70;99.90;;;;;;5011088;28;20037;-82
2022/03/14 06:00:13;;;;;;;9.02;6.53;;;9.70;99.90;;;;;;5004024;28;20038;-80
2022/03/14 06:02:45;;;;;;;7.90;6.10;;;9.70;99.90;;;;;;5004197;28;20572;-80
2022/03/14 06:05:10;;;;;;;9.95;7.38;;;9.70;99.90;;;;;;5012579;28;20466;-80
2022/03/14 06:07:36;;;;;;;11.68;7.97;;;9.70;99.90;;;;;;5013071;28;20125;-81
2022/03/14 06:10:01;;;;;;;10.23;7.55;;;9.70;99.90;;;;;;5008402;28;20026;-81
2022/03/14 06:12:29;;;;;;;9.30;7.15;;;9.70;99.90;;;;;;5014437;28;20121;-81
2022/03/14 06:14:56;;;;;;;13.70;8.30;;;9.70;99.90;;;;;;5012612;28;20026;-82
2022/03/14 06:17:23;;;;;;;10.52;6.78;;;9.70;99.90;;;;;;5006315;28;20026;-82
2022/03/14 06:19:49;;;;;;;11.38;6.95;;;9.70;99.90;;;;;;5011750;28;20152;-82
2022/03/14 06:22:20;;;;;;;12.05;8.65;;;9.70;99.90;;;;;;5005177;28;20026;-82
2022/03/14 06:24:47;;;;;;;9.82;8.07;;;9.60;99.90;;;;;;5025800;28;20652;-84
2022/03/14 06:27:17;;;;;;;11.38;8.35;;;9.60;99.90;;;;;;5014291;28;20080;-82
2022/03/14 06:29:43;;;;;;;9.93;7.93;;;9.60;99.90;;;;;;5035375;28;20040;-84
2022/03/14 06:32:10;;;;;;;11.20;8.18;;;9.60;99.90;;;;;;5014732;28;20044;-84
2022/03/14 06:34:36;;;;;;;10.10;8.02;;;9.60;99.90;;;;;;5013796;28;20097;-84
2022/03/14 06:37:02;;;;;;;10.15;7.63;;;9.60;99.90;;;;;;5010047;28;20497;-84
2022/03/14 06:39:27;;;;;;;11.82;8.80;;;9.60;99.90;;;;;;5013683;28;20038;-84
2022/03/14 06:41:53;;;;;;;10.27;7.80;;;9.60;99.90;;;;;;5020356;28;20025;-84
2022/03/14 06:44:19;;;;;;;12.82;9.18;;;9.50;99.90;;;;;;5020840;28;20127;-84
2022/03/14 06:46:45;;;;;;;11.95;8.80;;;9.50;99.90;;;;;;5008165;28;20052;-84
2022/03/14 06:49:13;;;;;;;11.48;9.15;;;9.50;99.90;;;;;;5008765;28;20042;-83
2022/03/14 06:51:41;;;;;;;14.40;9.65;;;9.50;99.90;;;;;;5009092;28;20034;-82
2022/03/14 06:54:08;;;;;;;16.63;9.18;;;9.50;99.90;;;;;;5006326;28;20060;-81
2022/03/14 06:56:34;;;;;;;11.80;9.35;;;9.50;99.90;;;;;;5009601;28;20529;-82
2022/03/14 06:59:00;;;;;;;14.40;9.75;;;9.50;99.90;;;;;;5009089;28;20118;-81
2022/03/14 07:01:30;;;;;;;12.90;9.57;;;9.50;99.90;;;;;;5008378;28;20014;-81
2022/03/14 07:03:56;;;;;;;11.75;9.73;;;9.50;99.90;;;;;;5001962;28;20076;-81
2022/03/14 07:06:22;;;;;;;15.90;9.95;;;9.50;99.90;;;;;;5012976;28;20044;-82
2022/03/14 07:08:48;;;;;;;15.88;9.93;;;9.50;99.90;;;;;;5016954;28;20037;-82
2022/03/14 07:11:13;;;;;;;14.85;10.02;;;9.60;99.90;;;;;;5025161;28;20052;-81
2022/03/14 07:13:39;;;;;;;15.00;11.23;;;9.60;99.90;;;;;;5009854;28;20038;-80
2022/03/14 07:16:05;;;;;;;16.00;10.70;;;9.60;99.90;;;;;;5007589;28;20077;-81
2022/03/14 07:18:30;;;;;;;16.88;12.35;;;9.60;99.90;;;;;;5010390;28;20026;-80
2022/03/14 07:20:57;;;;;;;15.98;12.00;;;9.60;99.90;;;;;;5014260;28;20045;-80
2022/03/14 07:23:22;;;;;;;15.25;12.10;;;9.60;99.90;;;;;;5012342;28;20026;-81
2022/03/14 07:25:50;;;;;;;18.67;13.50;;;9.70;99.90;;;;;;5013209;28;20072;-80
2022/03/14 07:28:15;;;;;;;20.25;13.25;;;9.70;99.90;;;;;;5010896;28;20037;-80
2022/03/14 07:30:41;;;;;;;18.73;13.48;;;9.70;99.90;;;;;;5013188;28;20026;-80
2022/03/14 07:33:07;;;;;;;19.67;13.38;;;9.80;99.90;;;;;;5009158;28;20569;-80
2022/03/14 07:35:34;;;;;;;19.38;13.68;;;9.80;99.90;;;;;;5012793;28;20038;-81
2022/03/14 07:37:59;;;;;;;21.10;13.88;;;9.80;99.90;;;;;;5012561;28;20109;-80
2022/03/14 07:40:25;;;;;;;20.80;14.30;;;9.80;99.90;;;;;;5007802;28;20459;-81
2022/03/14 07:42:53;;;;;;;18.60;14.05;;;9.80;99.90;;;;;;5013052;28;20034;-80
2022/03/14 07:45:21;;;;;;;20.52;15.07;;;9.80;99.90;;;;;;5012523;28;20496;-80
2022/03/14 07:47:47;;;;;;;19.40;14.85;;;9.80;99.90;;;;;;5009409;28;20030;-80
2022/03/14 07:50:15;;;;;;;23.73;17.00;;;9.90;99.90;;;;;;5006742;28;20094;-80
2022/03/14 07:52:42;;;;;;;23.52;15.70;;;9.90;99.90;;;;;;5005561;28;20049;-80
2022/03/14 07:55:09;;;;;;;22.02;16.48;;;9.90;99.90;;;;;;5012505;28;20048;-80
2022/03/14 07:57:35;;;;;;;22.55;16.27;;;10.00;99.90;;;;;;5012358;28;20391;-80
2022/03/14 08:00:03;;;;;;;24.27;15.60;;;10.00;99.90;;;;;;5010153;28;20033;-80
2022/03/14 08:02:29;;;;;;;21.52;15.48;;;10.00;99.90;;;;;;5010371;28;20385;-81
2022/03/14 08:04:55;;;;;;;22.00;16.20;;;10.00;99.90;;;;;;5012592;28;20101;-81
2022/03/14 08:07:20;;;;;;;21.65;14.75;;;10.10;99.90;;;;;;5012653;28;20030;-82
2022/03/14 08:09:48;;;;;;;22.15;16.92;;;10.10;99.90;;;;;;5008606;28;20112;-79
2022/03/14 08:12:14;;;;;;;23.05;16.80;;;10.10;99.90;;;;;;5006213;28;20117;-78
2022/03/14 08:14:39;;;;;;;24.02;17.50;;;10.20;99.90;;;;;;5012475;28;20037;-80
2022/03/14 08:17:05;;;;;;;24.13;16.00;;;10.20;99.90;;;;;;5011685;28;20028;-80
2022/03/14 08:19:30;;;;;;;22.85;16.50;;;10.30;99.90;;;;;;5012586;28;20076;-80
2022/03/14 08:21:57;;;;;;;25.45;17.35;;;10.30;99.90;;;;;;5012228;28;20030;-80
2022/03/14 08:24:24;;;;;;;21.25;15.40;;;10.40;99.90;;;;;;5010280;28;20030;-78
2022/03/14 08:26:50;;;;;;;23.83;16.73;;;10.40;99.90;;;;;;5011175;28;20109;-80
2022/03/14 08:29:15;;;;;;;25.50;16.45;;;10.40;99.90;;;;;;5010197;28;20454;-80
2022/03/14 08:31:42;;;;;;;24.90;17.58;;;10.40;99.90;;;;;;5008622;28;20433;-79
2022/03/14 08:34:08;;;;;;;22.30;16.15;;;10.50;99.90;;;;;;5011763;28;20493;-81
2022/03/14 08:36:36;;;;;;;23.23;16.52;;;10.50;99.90;;;;;;5004425;28;20026;-81
2022/03/14 08:39:03;;;;;;;24.70;17.38;;;10.50;99.90;;;;;;5007756;28;20121;-82
2022/03/14 08:41:31;;;;;;;25.42;16.27;;;10.50;99.90;;;;;;5008645;28;20037;-81
2022/03/14 08:43:56;;;;;;;23.75;17.15;;;10.50;99.90;;;;;;5010649;28;20035;-79
2022/03/14 08:46:22;;;;;;;23.92;16.40;;;10.50;99.90;;;;;;5008150;28;20029;-80
2022/03/14 08:48:48;;;;;;;22.58;16.30;;;10.50;99.90;;;;;;5009066;28;20046;-80
2022/03/14 08:51:13;;;;;;;23.88;16.92;;;10.50;99.90;;;;;;5010039;28;20420;-79
2022/03/14 08:53:39;;;;;;;25.90;16.38;;;10.50;99.90;;;;;;5011288;28;20042;-80
2022/03/14 08:56:05;;;;;;;26.52;18.08;;;10.50;99.90;;;;;;5007637;28;20028;-80
2022/03/14 08:58:32;;;;;;;26.70;17.38;;;10.60;99.90;;;;;;5008425;28;20030;-79
2022/03/14 09:01:01;;;;;;;25.00;17.50;;;10.60;99.90;;;;;;5011009;28;20018;-80
2022/03/14 09:03:27;;;;;;;24.60;17.70;;;10.60;99.90;;;;;;5012175;28;20026;-80
2022/03/14 09:05:56;;;;;;;25.38;17.65;;;10.60;99.90;;;;;;5010885;28;20529;-80
2022/03/14 09:08:28;;;;;;;21.45;17.23;;;10.60;99.90;;;;;;5011408;28;20433;-79
2022/03/14 09:10:55;;;;;;;26.67;17.77;;;10.50;99.90;;;;;;5015495;28;20811;-80
2022/03/14 09:13:23;;;;;;;30.10;19.27;;;10.50;99.90;;;;;;5015059;28;20432;-79
2022/03/14 09:15:49;;;;;;;26.20;17.05;;;10.50;99.90;;;;;;5014785;28;20049;-80
2022/03/14 09:18:15;;;;;;;25.80;17.83;;;10.50;99.90;;;;;;5013967;28;20462;-80
2022/03/14 09:20:42;;;;;;;30.92;17.70;;;10.60;99.90;;;;;;5015743;28;20095;-80
2022/03/14 09:23:08;;;;;;;25.38;18.52;;;10.60;99.90;;;;;;5014741;28;20058;-80
2022/03/14 09:25:34;;;;;;;25.25;17.13;;;10.60;99.90;;;;;;5014994;28;20027;-80
2022/03/14 09:28:00;;;;;;;28.15;17.70;;;10.60;99.90;;;;;;5011481;28;20033;-79
2022/03/14 09:30:26;;;;;;;25.73;18.65;;;10.70;99.90;;;;;;5015688;28;20068;-79
2022/03/14 09:32:54;;;;;;;29.40;17.88;;;10.70;99.90;;;;;;5014640;28;20371;-81
2022/03/14 09:35:21;;;;;;;24.38;17.95;;;10.70;99.90;;;;;;5014861;28;20026;-81
2022/03/14 09:37:47;;;;;;;29.48;18.00;;;10.70;99.90;;;;;;5015007;28;20112;-81
2022/03/14 09:40:17;;;;;;;26.58;17.73;;;10.80;99.90;;;;;;5014433;28;20065;-82
2022/03/14 09:42:45;;;;;;;24.05;18.70;;;10.80;99.90;;;;;;5012721;28;20030;-81
2022/03/14 09:45:14;;;;;;;23.98;17.70;;;10.90;99.90;;;;;;5014757;28;20024;-81
2022/03/14 09:47:43;;;;;;;25.77;16.85;;;10.90;99.90;;;;;;5013478;28;20033;-82
2022/03/14 09:50:15;;;;;;;21.40;15.25;;;10.90;99.90;;;;;;5013927;28;20054;-80
2022/03/14 09:52:42;;;;;;;;;;;10.80;99.90;;;;;;5015777;28;20045;-81
2022/03/14 09:55:09;;;;;;;28.55;17.10;;;10.80;99.90;;;;;;5011869;28;19909;-80
2022/03/14 09:57:37;;;;;;;26.92;18.00;;;10.80;99.90;;;;;;5013503;28;20030;-80
2022/03/14 10:00:06;;;;;;;29.52;18.17;;;10.80;99.90;;;;;;5014066;28;20025;-78
2022/03/14 10:02:36;;;;;;;26.27;17.45;;;10.80;99.90;;;;;;5014003;28;20034;-79
2022/03/14 10:05:06;;;;;;;25.65;17.35;;;10.80;99.90;;;;;;5014649;28;20397;-79
2022/03/14 10:07:34;;;;;;;28.65;18.10;;;10.80;99.90;;;;;;5013326;28;20433;-79
2022/03/14 10:09:59;;;;;;;26.08;17.10;;;10.80;99.90;;;;;;5014168;28;20027;-79
2022/03/14 10:12:25;;;;;;;26.70;17.33;;;10.90;99.90;;;;;;5017915;28;20045;-79
2022/03/14 10:14:50;;;;;;;29.75;16.85;;;11.00;99.90;;;;;;5013739;28;20061;-78
2022/03/14 10:17:16;;;;;;;25.15;16.02;;;11.00;99.90;;;;;;5013644;28;20061;-79
2022/03/14 10:19:59;;;;;;;26.20;16.23;;;11.00;99.90;;;;;;5014292;28;20477;-79
2022/03/14 10:22:33;;;;;;;25.98;16.58;;;11.00;99.90;;;;;;5012685;28;20065;-79
2022/03/14 10:25:09;;;;;;;24.73;16.98;;;11.10;99.90;;;;;;5014377;28;20474;-80
2022/03/14 10:27:37;;;;;;;22.38;16.55;;;11.10;99.90;;;;;;5013404;28;20069;-80
2022/03/14 10:30:05;;;;;;;27.52;15.77;;;11.20;99.90;;;;;;5014165;28;20030;-79
2022/03/14 10:32:31;;;;;;;24.83;15.82;;;11.30;99.90;;;;;;5012732;28;20034;-79
2022/03/14 10:35:03;;;;;;;26.70;16.13;;;11.30;99.90;;;;;;5013776;28;20088;-79
2022/03/14 10:37:29;;;;;;;26.60;15.88;;;11.40;99.90;;;;;;5010413;28;20072;-79
2022/03/14 10:40:08;;;;;;;19.77;14.88;;;11.60;99.90;;;;;;5014151;28;20044;-79
2022/03/14 10:42:42;;;;;;;23.65;15.15;;;11.80;99.90;;;;;;5014121;28;20029;-80
2022/03/14 10:45:11;;;;;;;23.55;16.48;;;12.10;99.90;;;;;;5013557;28;20030;-81
2022/03/14 10:47:42;;;;;;;24.27;14.75;;;12.40;99.90;;;;;;5013207;28;20072;-81
2022/03/14 10:50:09;;;;;;;21.75;14.90;;;12.50;99.90;;;;;;5013740;28;20141;-82
2022/03/14 10:52:34;;;;;;;24.52;14.13;;;12.70;99.90;;;;;;5014292;28;20046;-81
2022/03/14 10:55:00;;;;;;;21.35;14.55;;;12.80;99.90;;;;;;5008245;28;20393;-82
2022/03/14 10:57:29;;;;;;;21.77;14.68;;;12.70;99.90;;;;;;5011874;28;20069;-82
2022/03/14 10:59:56;;;;;;;19.75;14.55;;;12.70;99.90;;;;;;5009870;28;20021;-82
2022/03/14 11:02:26;;;;;;;22.08;13.35;;;12.70;99.90;;;;;;5004747;28;20080;-81
2022/03/14 11:04:56;;;;;;;22.52;13.48;;;12.70;99.90;;;;;;5009889;28;20490;-81
2022/03/14 11:07:33;;;;;;;22.48;14.95;;;12.70;99.90;;;;;;5010098;28;20069;-81
2022/03/14 11:10:00;;;;;;;23.25;14.27;;;12.80;99.90;;;;;;4996268;28;20054;-81
2022/03/14 11:12:30;;;;;;;23.95;15.30;;;12.80;99.90;;;;;;5009637;28;20038;-80
2022/03/14 11:15:07;;;;;;;23.08;15.20;;;13.00;99.90;;;;;;5006501;28;20048;-81
2022/03/14 11:17:35;;;;;;;22.05;14.63;;;13.20;99.90;;;;;;5013914;28;20110;-81
2022/03/14 11:20:02;;;;;;;23.00;15.35;;;13.30;99.90;;;;;;5014095;28;20064;-79
2022/03/14 11:22:32;;;;;;;20.85;15.40;;;13.30;99.90;;;;;;5013718;28;20498;-81
2022/03/14 11:24:59;;;;;;;20.67;14.75;;;13.30;99.90;;;;;;4996242;28;20101;-81
2022/03/14 11:27:34;;;;;;;20.80;14.20;;;13.40;99.90;;;;;;5007960;28;20397;-81
2022/03/14 11:30:05;;;;;;;22.50;14.38;;;13.70;99.60;;;;;;5013407;28;20026;-81
2022/03/14 11:32:30;;;;;;;22.40;12.93;;;14.00;98.70;;;;;;5008093;28;20552;-81
2022/03/14 11:34:56;;;;;;;19.55;13.27;;;14.10;97.80;;;;;;5009768;28;20052;-82
2022/03/14 11:37:23;;;;;;;18.10;12.38;;;14.10;96.90;;;;;;5009350;28;20053;-80
2022/03/14 11:39:49;;;;;;;19.92;12.13;;;14.00;96.60;;;;;;5013498;28;20436;-82
2022/03/14 11:42:15;;;;;;;17.08;12.32;;;13.80;96.20;;;;;;5013554;28;20033;-80
2022/03/14 11:44:44;;;;;;;21.42;13.40;;;13.60;96.10;;;;;;5011385;28;20033;-81
2022/03/14 11:47:12;;;;;;;22.20;13.55;;;13.50;96.20;;;;;;5000723;28;20032;-82
2022/03/14 11:49:38;;;;;;;23.00;14.27;;;13.40;96.20;;;;;;5025424;28;20046;-78
2022/03/14 11:52:18;;;;;;;21.77;13.93;;;13.30;96.30;;;;;;5010507;28;20018;-80
2022/03/14 11:54:59;;;;;;;20.77;13.25;;;13.40;96.40;;;;;;5005429;28;20371;-79
2022/03/14 11:57:33;;;;;;;19.52;12.63;;;13.30;96.10;;;;;;5001761;28;20029;-79
2022/03/14 12:00:20;;;;;;;18.55;14.55;;;13.20;96.10;;;;;;5007123;28;20108;-80
2022/03/14 12:02:46;;;;;;;24.58;15.15;;;13.20;96.30;;;;;;5007595;28;20178;-80
2022/03/14 12:05:11;;;;;;;22.45;14.43;;;13.30;96.40;;;;;;5012804;28;20053;-80
2022/03/14 12:07:37;;;;;;;20.08;14.23;;;13.40;95.90;;;;;;5011183;28;20033;-80
2022/03/14 12:10:26;;;;;;;18.90;13.32;;;13.40;95.90;;;;;;5007089;28;20073;-80
2022/03/14 12:12:53;;;;;;;20.92;14.90;;;13.40;95.50;;;;;;5004363;28;20026;-82
2022/03/14 12:15:41;;;;;;;19.80;15.82;;;13.30;95.60;;;;;;5011823;28;20488;-81
2022/03/14 12:18:27;;;;;;;22.95;15.88;;;13.20;95.90;;;;;;5010679;28;20022;-81
2022/03/14 12:21:03;;;;;;;23.10;15.32;;;13.10;96.10;;;;;;5012368;28;20030;-81
2022/03/14 12:23:33;;;;;;;22.67;14.80;;;13.20;96.30;;;;;;5012724;28;20048;-81
2022/03/14 12:26:01;;;;;;;20.52;15.32;;;13.20;96.30;;;;;;5007728;28;20485;-80
2022/03/14 12:28:35;;;;;;;19.23;14.68;;;13.30;96.20;;;;;;5010046;28;20038;-81
2022/03/14 12:31:03;;;;;;;19.25;14.73;;;13.40;96.30;;;;;;5006758;28;20026;-80
2022/03/14 12:33:36;;;;;;;21.00;13.82;;;13.50;96.10;;;;;;5006751;28;20042;-80
2022/03/14 12:36:41;;;;;;;17.40;11.73;;;13.60;95.80;;;;;;5023727;28;20014;-81
2022/03/14 12:39:08;;;;;;;14.57;9.65;;;13.70;95.30;;;;;;5010341;28;20061;-81
2022/03/14 12:41:39;;;;;;;16.23;10.60;;;13.80;94.80;;;;;;5010598;28;20104;-81